createdAt,value
2023-04-12T01:39:20.706Z,0.00
2023-04-12T02:01:20.523Z,0.00
2023-04-12T02:02:20.658Z,0.00
2023-04-12T02:04:20.458Z,0.00
2023-04-12T02:08:20.424Z,0.00
2023-04-12T02:11:20.391Z,0.00
2023-04-12T02:13:20.366Z,0.00
2023-04-12T02:16:20.359Z,0.00
2023-04-12T02:19:20.309Z,0.00
2023-04-12T02:20:20.297Z,0.00
2023-04-12T02:22:20.278Z,0.00
2023-04-12T02:23:20.266Z,0.00
2023-04-12T02:25:20.269Z,0.00
2023-04-12T02:26:20.234Z,0.00
2023-04-12T02:29:20.206Z,0.00
2023-04-12T02:35:20.223Z,0.00
2023-04-12T02:36:20.137Z,0.00
2023-04-12T02:39:20.105Z,0.00
2023-04-12T02:40:20.096Z,0.00
2023-04-12T02:42:20.074Z,0.00
2023-04-12T02:44:20.055Z,0.00
2023-04-12T02:46:20.162Z,0.00
2023-04-12T02:47:20.045Z,0.00
2023-04-12T02:49:20.008Z,0.00
2023-04-12T02:51:19.986Z,0.00
2023-04-12T02:52:19.979Z,0.00
2023-04-12T02:53:19.964Z,0.00
2023-04-12T02:54:19.955Z,0.00
2023-04-12T02:55:19.976Z,0.00
2023-04-12T02:57:19.954Z,0.00
2023-04-12T02:58:19.924Z,0.00
2023-04-12T02:59:19.907Z,0.00
2023-04-12T03:01:19.915Z,0.00
2023-04-12T03:02:19.980Z,0.00
2023-04-12T03:03:20.066Z,0.00
2023-04-12T03:05:19.846Z,0.00
2023-04-12T03:06:19.846Z,0.00
2023-04-12T03:07:19.825Z,0.00
2023-04-12T03:08:19.815Z,0.00
2023-04-12T03:09:19.804Z,0.00
2023-04-12T03:11:19.787Z,0.00
2023-04-12T03:13:19.792Z,0.00
2023-04-12T03:14:19.754Z,0.00
2023-04-12T03:15:19.745Z,0.00
2023-04-12T03:16:19.829Z,0.00
2023-04-12T03:17:19.731Z,0.00
2023-04-12T03:21:19.691Z,0.00
2023-04-12T03:47:19.417Z,0.00
2023-04-12T03:48:19.417Z,0.00
2023-04-12T03:49:19.445Z,0.00
2023-04-12T03:50:19.388Z,0.00
2023-04-12T03:51:19.379Z,0.00
2023-04-12T03:52:19.375Z,0.00
2023-04-12T03:53:19.360Z,0.00
2023-04-12T04:03:19.320Z,0.00
2023-04-12T04:04:19.391Z,0.00
2023-04-12T04:05:19.300Z,0.00
2023-04-12T04:07:19.215Z,0.00
2023-04-12T04:09:19.193Z,0.00
2023-04-12T04:10:19.182Z,0.00
2023-04-12T04:11:19.188Z,0.00
2023-04-12T04:12:19.161Z,0.00
2023-04-12T04:13:19.153Z,0.00
2023-04-12T04:14:19.153Z,1.00
2023-04-12T04:15:19.132Z,1.00
2023-04-12T04:16:19.218Z,1.00
2023-04-12T04:17:19.215Z,1.00
2023-04-12T04:18:19.102Z,0.00
2023-04-12T04:19:19.096Z,0.00
2023-04-12T04:20:19.087Z,0.00
2023-04-12T04:22:19.059Z,2.00
2023-04-12T04:23:19.049Z,2.00
2023-04-12T04:24:19.049Z,2.00
2023-04-12T04:25:19.034Z,0.00
2023-04-12T04:26:19.022Z,0.00
2023-04-12T04:27:19.010Z,4.00
2023-04-12T04:28:19.006Z,0.00
2023-04-12T04:29:18.992Z,2.00
2023-04-12T04:30:18.974Z,1.00
2023-04-12T04:31:18.982Z,5.00
2023-04-12T04:32:18.974Z,3.00
2023-04-12T04:33:19.067Z,3.00
2023-04-12T04:34:18.995Z,5.00
2023-04-12T04:35:18.941Z,4.00
2023-04-12T04:36:18.921Z,4.00
2023-04-12T04:37:18.910Z,4.00
2023-04-12T04:38:18.893Z,10.00
2023-04-12T04:39:18.885Z,8.00
2023-04-12T04:40:18.875Z,15.00
2023-04-12T04:41:18.863Z,20.00
2023-04-12T04:42:18.851Z,26.00
2023-04-12T04:43:18.848Z,27.00
2023-04-12T04:44:18.843Z,27.00
2023-04-12T04:45:18.829Z,42.00
2023-04-12T04:46:18.894Z,40.00
2023-04-12T04:47:18.799Z,58.00
2023-04-12T04:48:18.808Z,63.00
2023-04-12T04:49:18.799Z,68.00
2023-04-12T04:51:18.757Z,84.00
2023-04-12T04:52:18.752Z,105.00
2023-04-12T04:53:18.736Z,117.00
2023-04-12T04:54:18.742Z,141.00
2023-04-12T04:55:18.729Z,184.00
2023-04-12T04:56:18.711Z,214.00
2023-04-12T04:57:18.694Z,241.00
2023-04-12T04:58:18.684Z,259.00
2023-04-12T05:00:18.670Z,288.00
2023-04-12T05:01:18.726Z,299.00
2023-04-12T05:02:18.683Z,317.00
2023-04-12T05:05:18.635Z,447.00
2023-04-12T05:06:18.614Z,487.00
2023-04-12T05:07:18.594Z,527.00
2023-04-12T05:08:18.582Z,576.00
2023-04-12T05:09:18.570Z,603.00
2023-04-12T05:10:18.572Z,610.00
2023-04-12T05:11:18.548Z,639.00
2023-04-12T05:12:18.539Z,631.00
2023-04-12T05:13:18.532Z,629.00
2023-04-12T05:14:19.104Z,629.00
2023-04-12T05:15:18.514Z,640.00
2023-04-12T05:16:18.532Z,638.00
2023-04-12T05:17:18.501Z,649.00
2023-04-12T05:18:18.483Z,640.00
2023-04-12T05:19:18.475Z,619.00
2023-04-12T05:20:18.461Z,614.00
2023-04-12T05:21:18.480Z,633.00
2023-04-12T05:22:18.442Z,676.00
2023-04-12T05:24:18.418Z,784.00
2023-04-12T05:25:18.408Z,840.00
2023-04-12T05:26:18.403Z,866.00
2023-04-12T05:27:18.390Z,879.00
2023-04-12T05:28:18.379Z,910.00
2023-04-12T05:29:18.371Z,952.00
2023-04-12T05:30:18.460Z,991.00
2023-04-12T05:31:18.412Z,1017.00
2023-04-12T05:33:18.326Z,993.00
2023-04-12T05:34:18.317Z,942.00
2023-04-12T05:35:18.379Z,872.00
2023-04-12T05:36:18.297Z,834.00
2023-04-12T05:37:18.314Z,805.00
2023-04-12T05:38:18.278Z,824.00
2023-04-12T05:39:20.458Z,861.00
2023-04-12T05:40:18.258Z,904.00
2023-04-12T05:41:18.246Z,949.00
2023-04-12T05:42:18.236Z,1001.00
2023-04-12T05:43:18.240Z,1041.00
2023-04-12T05:44:18.222Z,1052.00
2023-04-12T05:45:18.216Z,1050.00
2023-04-12T05:46:18.210Z,1071.00
2023-04-12T05:47:18.187Z,1079.00
2023-04-12T05:48:18.176Z,1088.00
2023-04-12T05:49:18.169Z,1099.00
2023-04-12T05:50:18.155Z,1144.00
2023-04-12T05:51:22.920Z,1195.00
2023-04-12T05:52:19.164Z,1179.00
2023-04-12T05:54:18.118Z,1117.00
2023-04-12T05:55:18.110Z,1056.00
2023-04-12T05:56:18.096Z,987.00
2023-04-12T05:57:18.094Z,922.00
2023-04-12T05:59:18.062Z,903.00
2023-04-12T06:00:18.051Z,874.00
2023-04-12T06:02:18.114Z,835.00
2023-04-12T06:03:18.261Z,802.00
2023-04-12T06:04:18.127Z,749.00
2023-04-12T06:06:17.987Z,663.00
2023-04-12T06:07:17.984Z,636.00
2023-04-12T06:08:17.969Z,630.00
2023-04-12T06:09:17.997Z,607.00
2023-04-12T06:10:18.191Z,591.00
2023-04-12T06:11:17.938Z,571.00
2023-04-12T06:12:17.944Z,563.00
2023-04-12T06:13:17.920Z,535.00
2023-04-12T06:14:17.906Z,523.00
2023-04-12T06:15:17.895Z,500.00
2023-04-12T06:16:17.934Z,476.00
2023-04-12T06:17:17.897Z,456.00
2023-04-12T06:18:17.868Z,476.00
2023-04-12T06:19:17.856Z,474.00
2023-04-12T06:21:17.837Z,499.00
2023-04-12T06:22:17.826Z,515.00
2023-04-12T06:23:17.811Z,528.00
2023-04-12T06:24:17.801Z,518.00
2023-04-12T06:25:17.817Z,541.00
2023-04-12T06:26:18.503Z,617.00
2023-04-12T06:27:17.777Z,656.00
2023-04-12T06:28:17.759Z,696.00
2023-04-12T06:29:17.748Z,666.00
2023-04-12T06:30:17.735Z,651.00
2023-04-12T06:31:17.779Z,673.00
2023-04-12T06:32:17.713Z,688.00
2023-04-12T06:34:17.701Z,682.00
2023-04-12T06:35:17.680Z,648.00
2023-04-12T06:36:17.709Z,652.00
2023-04-12T06:38:17.645Z,663.00
2023-04-12T06:39:17.639Z,671.00
2023-04-12T06:40:17.626Z,705.00
2023-04-12T06:41:17.640Z,730.00
2023-04-12T06:42:17.637Z,738.00
2023-04-12T06:43:17.611Z,742.00
2023-04-12T06:45:17.572Z,774.00
2023-04-12T06:46:17.587Z,788.00
2023-04-12T06:47:17.590Z,829.00
2023-04-12T06:48:17.542Z,921.00
2023-04-12T06:49:17.528Z,1018.00
2023-04-12T06:52:17.499Z,1359.00
2023-04-12T06:53:17.495Z,1485.00
2023-04-12T06:54:17.493Z,1638.00
2023-04-12T06:55:17.465Z,1751.00
2023-04-12T06:56:18.587Z,1895.00
2023-04-12T06:57:17.605Z,2104.00
2023-04-12T06:58:17.434Z,2357.00
2023-04-12T06:59:17.424Z,2627.00
2023-04-12T07:00:17.411Z,2821.00
2023-04-12T07:02:17.495Z,3124.00
2023-04-12T07:03:17.422Z,3181.00
2023-04-12T07:04:17.469Z,3082.00
2023-04-12T07:05:17.360Z,2961.00
2023-04-12T07:06:25.035Z,2890.00
2023-04-12T07:07:18.363Z,2823.00
2023-04-12T07:08:17.330Z,2752.00
2023-04-12T07:09:17.320Z,2732.00
2023-04-12T07:10:17.312Z,2770.00
2023-04-12T07:11:21.517Z,2849.00
2023-04-12T07:13:17.304Z,3064.00
2023-04-12T07:14:17.275Z,3106.00
2023-04-12T07:15:17.260Z,3055.00
2023-04-12T07:19:17.221Z,2589.00
2023-04-12T07:20:17.213Z,2576.00
2023-04-12T07:22:17.188Z,2638.00
2023-04-12T07:23:17.187Z,2662.00
2023-04-12T07:24:17.173Z,2619.00
2023-04-12T07:25:17.220Z,2580.00
2023-04-12T07:26:17.148Z,2526.00
2023-04-12T07:27:17.164Z,2520.00
2023-04-12T07:28:17.126Z,2548.00
2023-04-12T07:29:17.150Z,2636.00
2023-04-12T07:30:17.108Z,2686.00
2023-04-12T07:31:17.095Z,2698.00
2023-04-12T07:32:17.092Z,2631.00
2023-04-12T07:33:19.879Z,2499.00
2023-04-12T07:34:17.199Z,2323.00
2023-04-12T07:35:17.058Z,2172.00
2023-04-12T07:36:17.061Z,2095.00
2023-04-12T07:38:17.150Z,2169.00
2023-04-12T07:41:16.999Z,2454.00
2023-04-12T07:43:16.984Z,2399.00
2023-04-12T07:44:16.981Z,2331.00
2023-04-12T07:45:17.132Z,2392.00
2023-04-12T07:46:16.974Z,2429.00
2023-04-12T07:47:16.944Z,2400.00
2023-04-12T07:48:16.936Z,2409.00
2023-04-12T07:49:16.925Z,2378.00
2023-04-12T07:50:16.909Z,2235.00
2023-04-12T07:51:16.898Z,2050.00
2023-04-12T07:52:16.888Z,2036.00
2023-04-12T07:54:16.872Z,1859.00
2023-04-12T07:55:16.857Z,1787.00
2023-04-12T07:58:16.840Z,1890.00
2023-04-12T07:59:16.817Z,1935.00
2023-04-12T08:00:16.839Z,1928.00
2023-04-12T08:01:16.827Z,1901.00
2023-04-12T08:03:16.907Z,1995.00
2023-04-12T08:04:17.024Z,2155.00
2023-04-12T08:05:16.794Z,2217.00
2023-04-12T08:06:16.801Z,2248.00
2023-04-12T08:07:16.735Z,2331.00
2023-04-12T08:08:16.731Z,2559.00
2023-04-12T08:09:16.721Z,2701.00
2023-04-12T08:10:16.703Z,2769.00
2023-04-12T08:11:16.718Z,2780.00
2023-04-12T08:12:16.685Z,2694.00
2023-04-12T08:14:16.663Z,2416.00
2023-04-12T08:15:16.658Z,2355.00
2023-04-12T08:16:16.682Z,2371.00
2023-04-12T08:17:16.657Z,2470.00
2023-04-12T08:18:16.634Z,2563.00
2023-04-12T08:19:16.612Z,2500.00
2023-04-12T08:20:16.604Z,2334.00
2023-04-12T08:21:16.590Z,2201.00
2023-04-12T08:22:16.591Z,2153.00
2023-04-12T08:23:16.569Z,2102.00
2023-04-12T08:25:16.549Z,2222.00
2023-04-12T08:26:16.540Z,2204.00
2023-04-12T08:27:16.564Z,2264.00
2023-04-12T08:29:16.512Z,2630.00
2023-04-12T08:30:16.519Z,2816.00
2023-04-12T08:31:16.537Z,2981.00
2023-04-12T08:32:16.505Z,3089.00
2023-04-12T08:33:16.731Z,3256.00
2023-04-12T08:35:16.447Z,3306.00
2023-04-12T08:36:16.516Z,3237.00
2023-04-12T08:37:16.436Z,3027.00
2023-04-12T08:38:16.432Z,3130.00
2023-04-12T08:39:16.406Z,3362.00
2023-04-12T08:40:16.396Z,3870.00
2023-04-12T08:41:16.382Z,4265.00
2023-04-12T08:42:16.376Z,4860.00
2023-04-12T08:43:16.371Z,5436.00
2023-04-12T08:44:16.358Z,5734.00
2023-04-12T08:45:16.344Z,5837.00
2023-04-12T08:47:16.330Z,4780.00
2023-04-12T08:48:16.317Z,4405.00
2023-04-12T08:49:16.333Z,4405.00
2023-04-12T08:50:16.300Z,4545.00
2023-04-12T08:54:16.252Z,5003.00
2023-04-12T08:55:16.247Z,4873.00
2023-04-12T08:56:16.252Z,4740.00
2023-04-12T08:57:16.225Z,4603.00
2023-04-12T08:58:16.212Z,4481.00
2023-04-12T08:59:16.208Z,4480.00
2023-04-12T09:00:16.195Z,4461.00
2023-04-12T09:01:16.184Z,4345.00
2023-04-12T09:02:16.310Z,4141.00
2023-04-12T09:03:16.338Z,3915.00
2023-04-12T09:04:16.363Z,3739.00
2023-04-12T09:06:16.132Z,3649.00
2023-04-12T09:07:16.129Z,3610.00
2023-04-12T09:08:16.124Z,3539.00
2023-04-12T09:10:16.095Z,3486.00
2023-04-12T09:11:16.079Z,3499.00
2023-04-12T09:12:16.068Z,3470.00
2023-04-12T09:13:16.063Z,3429.00
2023-04-12T09:14:16.052Z,3428.00
2023-04-12T09:15:16.051Z,3510.00
2023-04-12T09:17:16.016Z,3993.00
2023-04-12T09:20:15.994Z,5167.00
2023-04-12T09:21:16.032Z,5315.00
2023-04-12T09:22:15.970Z,5549.00
2023-04-12T09:23:15.957Z,5782.00
2023-04-12T09:26:15.929Z,7135.00
2023-04-12T09:27:15.914Z,7650.00
2023-04-12T09:28:15.907Z,7810.00
2023-04-12T09:29:15.920Z,7564.00
2023-04-12T09:31:15.907Z,8009.00
2023-04-12T09:32:15.918Z,8309.00
2023-04-12T09:33:15.855Z,8008.00
2023-04-12T09:34:15.847Z,7944.00
2023-04-12T09:35:15.852Z,7848.00
2023-04-12T09:37:15.844Z,8097.00
2023-04-12T09:38:15.825Z,8140.00
2023-04-12T09:39:15.793Z,8548.00
2023-04-12T09:40:15.805Z,9100.00
2023-04-12T09:43:16.788Z,8754.00
2023-04-12T09:44:15.739Z,8800.00
2023-04-12T09:47:15.710Z,9372.00
2023-04-12T09:48:15.780Z,9571.00
2023-04-12T09:49:15.691Z,9075.00
2023-04-12T09:50:15.703Z,9303.00
2023-04-12T09:51:15.689Z,10378.00
2023-04-12T09:52:15.660Z,10713.00
2023-04-12T09:53:15.863Z,10783.00
2023-04-12T09:55:15.664Z,10223.00
2023-04-12T09:56:15.617Z,9356.00
2023-04-12T09:57:15.607Z,8385.00
2023-04-12T09:58:15.598Z,7632.00
2023-04-12T09:59:15.588Z,6967.00
2023-04-12T10:01:17.519Z,6223.00
2023-04-12T10:03:15.636Z,6650.00
2023-04-12T10:05:15.587Z,6650.00
2023-04-12T10:06:15.548Z,6654.00
2023-04-12T10:08:15.522Z,6628.00
2023-04-12T10:10:15.487Z,6849.00
2023-04-12T10:11:15.455Z,6725.00
2023-04-12T10:12:15.445Z,6268.00
2023-04-12T10:13:15.430Z,5735.00
2023-04-12T10:14:17.633Z,5269.00
2023-04-12T10:15:15.425Z,5126.00
2023-04-12T10:16:15.483Z,5155.00
2023-04-12T10:17:15.407Z,5430.00
2023-04-12T10:18:15.432Z,5668.00
2023-04-12T10:19:15.384Z,5714.00
2023-04-12T10:20:15.421Z,5928.00
2023-04-12T10:21:15.354Z,6308.00
2023-04-12T10:22:15.370Z,6557.00
2023-04-12T10:23:15.328Z,6850.00
2023-04-12T10:25:15.378Z,7491.00
2023-04-12T10:26:15.297Z,7186.00
2023-04-12T10:27:15.305Z,6775.00
2023-04-12T10:28:15.291Z,6540.00
2023-04-12T10:29:15.285Z,6388.00
2023-04-12T10:30:15.274Z,6134.00
2023-04-12T10:31:15.305Z,5966.00
2023-04-12T10:32:15.319Z,5710.00
2023-04-12T10:33:15.387Z,5837.00
2023-04-12T10:35:15.220Z,6242.00
2023-04-12T10:36:15.252Z,6203.00
2023-04-12T10:37:15.223Z,6184.00
2023-04-12T10:38:15.178Z,6466.00
2023-04-12T10:41:15.242Z,6886.00
2023-04-12T10:43:15.138Z,7655.00
2023-04-12T10:45:15.140Z,6296.00
2023-04-12T10:46:15.204Z,5980.00
2023-04-12T10:47:15.162Z,5706.00
2023-04-12T10:48:15.122Z,5773.00
2023-04-12T10:50:15.179Z,6193.00
2023-04-12T10:51:15.064Z,5807.00
2023-04-12T10:52:15.089Z,5461.00
2023-04-12T10:53:15.035Z,5373.00
2023-04-12T10:54:15.033Z,5588.00
2023-04-12T10:55:15.017Z,5789.00
2023-04-12T10:56:15.016Z,5605.00
2023-04-12T10:57:15.062Z,5421.00
2023-04-12T10:58:14.987Z,5166.00
2023-04-12T10:59:15.069Z,5128.00
2023-04-12T11:01:15.035Z,4422.00
2023-04-12T11:02:15.227Z,4216.00
2023-04-12T11:03:15.200Z,4055.00
2023-04-12T11:04:15.294Z,3899.00
2023-04-12T11:05:14.964Z,3795.00
2023-04-12T11:06:27.222Z,4018.00
2023-04-12T11:08:14.939Z,4222.00
2023-04-12T11:09:14.904Z,4149.00
2023-04-12T11:10:15.040Z,4198.00
2023-04-12T11:11:14.848Z,4159.00
2023-04-12T11:12:14.848Z,4109.00
2023-04-12T11:13:14.857Z,4413.00
2023-04-12T11:14:14.836Z,4628.00
2023-04-12T11:15:14.852Z,4598.00
2023-04-12T11:16:14.885Z,4601.00
2023-04-12T11:17:15.102Z,4569.00
2023-04-12T11:18:14.870Z,4718.00
2023-04-12T11:19:14.796Z,4871.00
2023-04-12T11:20:14.766Z,4825.00
2023-04-12T11:21:14.788Z,5059.00
2023-04-12T11:22:14.757Z,5512.00
2023-04-12T11:23:14.794Z,5919.00
2023-04-12T11:24:14.764Z,5930.00
2023-04-12T11:25:14.754Z,5448.00
2023-04-12T11:26:14.902Z,5131.00
2023-04-12T11:27:14.692Z,5112.00
2023-04-12T11:28:27.883Z,5257.00
2023-04-12T11:29:15.716Z,5615.00
2023-04-12T11:30:14.719Z,6187.00
2023-04-12T11:31:14.664Z,6482.00
2023-04-12T11:32:14.706Z,6393.00
2023-04-12T11:33:14.790Z,6138.00
2023-04-12T11:34:16.142Z,6237.00
2023-04-12T11:35:14.616Z,6369.00
2023-04-12T11:36:14.600Z,6411.00
2023-04-12T11:37:14.746Z,6416.00
2023-04-12T11:38:14.584Z,6396.00
2023-04-12T11:39:14.568Z,6333.00
2023-04-12T11:40:14.562Z,6550.00
2023-04-12T11:41:14.551Z,6850.00
2023-04-12T11:42:14.552Z,7107.00
2023-04-12T11:43:14.584Z,7471.00
2023-04-12T11:44:14.525Z,7602.00
2023-04-12T11:45:17.809Z,7816.00
2023-04-12T11:46:14.671Z,8363.00
2023-04-12T11:47:14.502Z,9134.00
2023-04-12T11:48:14.571Z,9670.00
2023-04-12T11:49:14.473Z,10235.00
2023-04-12T11:50:14.466Z,9682.00
2023-04-12T11:51:14.474Z,9103.00
2023-04-12T11:52:14.442Z,9143.00
2023-04-12T11:53:14.448Z,9136.00
2023-04-12T11:54:14.673Z,8841.00
2023-04-12T11:55:14.411Z,8724.00
2023-04-12T11:56:14.399Z,8589.00
2023-04-12T11:57:14.390Z,8844.00
2023-04-12T12:01:14.371Z,9688.00
2023-04-12T12:03:15.558Z,9264.00
2023-04-12T12:04:14.525Z,8697.00
2023-04-12T12:05:14.938Z,8495.00
2023-04-12T12:06:14.711Z,8975.00
2023-04-12T12:07:14.406Z,9901.00
2023-04-12T12:08:14.272Z,10432.00
2023-04-12T12:09:14.265Z,10331.00
2023-04-12T12:10:21.081Z,10323.00
2023-04-12T12:11:15.264Z,10035.00
2023-04-12T12:13:14.232Z,9171.00
2023-04-12T12:15:14.201Z,10587.00
2023-04-12T12:16:14.203Z,11413.00
2023-04-12T12:17:14.233Z,11262.00
2023-04-12T12:19:14.155Z,11643.00
2023-04-12T12:21:14.134Z,11414.00
2023-04-12T12:22:14.124Z,11289.00
2023-04-12T12:23:14.117Z,10899.00
2023-04-12T12:25:14.197Z,10557.00
2023-04-12T12:26:18.377Z,10973.00
2023-04-12T12:27:14.115Z,12080.00
2023-04-12T12:28:14.318Z,12587.00
2023-04-12T12:29:14.053Z,12705.00
2023-04-12T12:30:14.047Z,12383.00
2023-04-12T12:31:14.086Z,11886.00
2023-04-12T12:33:14.047Z,11184.00
2023-04-12T12:34:14.008Z,11477.00
2023-04-12T12:35:13.997Z,11917.00
2023-04-12T12:37:13.974Z,12386.00
2023-04-12T12:38:13.974Z,12193.00
2023-04-12T12:39:13.954Z,11582.00
2023-04-12T12:40:14.154Z,10978.00
2023-04-12T12:41:13.935Z,10421.00
2023-04-12T12:42:13.935Z,9974.00
2023-04-12T12:43:13.912Z,9837.00
2023-04-12T12:44:13.911Z,9872.00
2023-04-12T12:45:13.912Z,10419.00
2023-04-12T12:47:14.897Z,9724.00
2023-04-12T12:48:14.060Z,9228.00
2023-04-12T12:49:13.896Z,9237.00
2023-04-12T12:50:13.941Z,9824.00
2023-04-12T12:51:13.831Z,11131.00
2023-04-12T12:52:15.166Z,12457.00
2023-04-12T12:53:13.810Z,13167.00
2023-04-12T12:54:15.146Z,14347.00
2023-04-12T12:55:13.802Z,14379.00
2023-04-12T12:56:13.814Z,13280.00
2023-04-12T12:57:13.873Z,12514.00
2023-04-12T12:58:13.766Z,12069.00
2023-04-12T13:00:13.740Z,11445.00
2023-04-12T13:02:13.846Z,11390.00
2023-04-12T13:04:13.767Z,10496.00
2023-04-12T13:06:13.678Z,8815.00
2023-04-12T13:08:13.658Z,9580.00
2023-04-12T13:12:13.620Z,8784.00
2023-04-12T13:13:13.610Z,8747.00
2023-04-12T13:14:13.601Z,8259.00
2023-04-12T13:15:22.462Z,7862.00
2023-04-12T13:16:14.625Z,7964.00
2023-04-12T13:18:13.557Z,7760.00
2023-04-12T13:19:13.549Z,7323.00
2023-04-12T13:20:13.538Z,6895.00
2023-04-12T13:21:13.544Z,6801.00
2023-04-12T13:22:13.519Z,7092.00
2023-04-12T13:23:13.505Z,7357.00
2023-04-12T13:24:13.498Z,7185.00
2023-04-12T13:25:13.481Z,6791.00
2023-04-12T13:27:15.277Z,6966.00
2023-04-12T13:28:13.459Z,7183.00
2023-04-12T13:29:13.455Z,7280.00
2023-04-12T13:30:13.450Z,7207.00
2023-04-12T13:31:13.512Z,7089.00
2023-04-12T13:32:13.446Z,7086.00
2023-04-12T13:33:18.328Z,7107.00
2023-04-12T13:34:14.425Z,7098.00
2023-04-12T13:36:13.365Z,7284.00
2023-04-12T13:37:13.391Z,7523.00
2023-04-12T13:39:13.339Z,7270.00
2023-04-12T13:40:13.343Z,7283.00
2023-04-12T13:41:13.314Z,7533.00
2023-04-12T13:42:13.308Z,7784.00
2023-04-12T13:43:13.291Z,7904.00
2023-04-12T13:45:13.274Z,7387.00
2023-04-12T13:46:13.368Z,7362.00
2023-04-12T13:47:13.261Z,7494.00
2023-04-12T13:48:13.275Z,7676.00
2023-04-12T13:49:13.228Z,7746.00
2023-04-12T13:50:13.213Z,7736.00
2023-04-12T13:51:13.208Z,7457.00
2023-04-12T13:52:13.200Z,7125.00
2023-04-12T13:53:13.252Z,6854.00
2023-04-12T13:54:13.173Z,6674.00
2023-04-12T13:57:13.146Z,7318.00
2023-04-12T13:58:13.133Z,7549.00
2023-04-12T13:59:13.138Z,7613.00
2023-04-12T14:00:13.113Z,7437.00
2023-04-12T14:01:13.183Z,6919.00
2023-04-12T14:02:13.118Z,6269.00
2023-04-12T14:03:13.168Z,5702.00
2023-04-12T14:04:13.096Z,5374.00
2023-04-12T14:06:13.049Z,5190.00
2023-04-12T14:07:13.051Z,5137.00
2023-04-12T14:09:13.043Z,4871.00
2023-04-12T14:10:13.013Z,4834.00
2023-04-12T14:11:12.998Z,4938.00
2023-04-12T14:12:12.983Z,5038.00
2023-04-12T14:13:12.986Z,5112.00
2023-04-12T14:14:14.252Z,5033.00
2023-04-12T14:15:12.969Z,4782.00
2023-04-12T14:16:12.947Z,4490.00
2023-04-12T14:17:13.002Z,4345.00
2023-04-12T14:18:13.024Z,4307.00
2023-04-12T14:19:12.930Z,4280.00
2023-04-12T14:20:12.933Z,4261.00
2023-04-12T14:22:12.882Z,4124.00
2023-04-12T14:23:12.872Z,4068.00
2023-04-12T14:24:12.864Z,4057.00
2023-04-12T14:26:12.842Z,4316.00
2023-04-12T14:27:12.835Z,4415.00
2023-04-12T14:28:12.819Z,4526.00
2023-04-12T14:29:12.807Z,4666.00
2023-04-12T14:30:12.808Z,4656.00
2023-04-12T14:32:12.780Z,4332.00
2023-04-12T14:33:12.857Z,4158.00
2023-04-12T14:35:12.754Z,3807.00
2023-04-12T14:37:12.734Z,3574.00
2023-04-12T14:38:12.723Z,3532.00
2023-04-12T14:39:14.100Z,3551.00
2023-04-12T14:40:12.707Z,3553.00
2023-04-12T14:43:12.666Z,3303.00
2023-04-12T14:45:12.648Z,3098.00
2023-04-12T14:46:12.658Z,3035.00
2023-04-12T14:47:12.624Z,3001.00
2023-04-12T14:48:12.620Z,3000.00
2023-04-12T14:49:12.607Z,3027.00
2023-04-12T14:50:12.594Z,3098.00
2023-04-12T14:51:12.588Z,3195.00
2023-04-12T14:52:12.571Z,3330.00
2023-04-12T14:53:12.563Z,3507.00
2023-04-12T14:54:12.552Z,3668.00
2023-04-12T14:56:12.529Z,3998.00
2023-04-12T14:58:12.520Z,4017.00
2023-04-12T15:00:12.494Z,3903.00
2023-04-12T15:02:12.539Z,3837.00
2023-04-12T15:03:12.637Z,3783.00
2023-04-12T15:04:12.594Z,3712.00
2023-04-12T15:05:12.481Z,3569.00
2023-04-12T15:06:12.438Z,3372.00
2023-04-12T15:07:12.416Z,3159.00
2023-04-12T15:08:12.428Z,3033.00
2023-04-12T15:09:12.404Z,2993.00
2023-04-12T15:10:12.401Z,3040.00
2023-04-12T15:11:12.375Z,3202.00
2023-04-12T15:12:12.379Z,3445.00
2023-04-12T15:13:12.392Z,3685.00
2023-04-12T15:14:12.344Z,3731.00
2023-04-12T15:15:12.355Z,3628.00
2023-04-12T15:16:12.452Z,3505.00
2023-04-12T15:17:12.315Z,3352.00
2023-04-12T15:18:12.301Z,3085.00
2023-04-12T15:19:19.368Z,2786.00
2023-04-12T15:20:13.306Z,2535.00
2023-04-12T15:21:12.272Z,2353.00
2023-04-12T15:22:12.277Z,2294.00
2023-04-12T15:23:12.255Z,2265.00
2023-04-12T15:24:12.263Z,2245.00
2023-04-12T15:25:12.234Z,2188.00
2023-04-12T15:26:12.253Z,2122.00
2023-04-12T15:27:12.217Z,2084.00
2023-04-12T15:28:12.201Z,2028.00
2023-04-12T15:29:12.237Z,2015.00
2023-04-12T15:30:12.216Z,1979.00
2023-04-12T15:31:12.309Z,1933.00
2023-04-12T15:32:12.240Z,1909.00
2023-04-12T15:33:12.193Z,1870.00
2023-04-12T15:34:12.153Z,1884.00
2023-04-12T15:37:12.123Z,1913.00
2023-04-12T15:38:15.360Z,1840.00
2023-04-12T15:40:12.076Z,1707.00
2023-04-12T15:41:12.091Z,1641.00
2023-04-12T15:42:12.071Z,1629.00
2023-04-12T15:43:12.050Z,1565.00
2023-04-12T15:45:12.058Z,1468.00
2023-04-12T15:46:12.058Z,1391.00
2023-04-12T15:47:12.243Z,1349.00
2023-04-12T15:49:11.995Z,1278.00
2023-04-12T15:50:12.006Z,1249.00
2023-04-12T15:51:11.968Z,1219.00
2023-04-12T15:53:11.945Z,1237.00
2023-04-12T15:54:11.938Z,1236.00
2023-04-12T15:55:11.997Z,1269.00
2023-04-12T15:56:11.919Z,1269.00
2023-04-12T15:57:11.921Z,1271.00
2023-04-12T15:58:11.899Z,1266.00
2023-04-12T15:59:11.887Z,1267.00
2023-04-12T16:00:11.875Z,1253.00
2023-04-12T16:01:11.975Z,1233.00
2023-04-12T16:02:11.944Z,1189.00
2023-04-12T16:03:11.983Z,1139.00
2023-04-12T16:04:11.968Z,1118.00
2023-04-12T16:05:11.824Z,1116.00
2023-04-12T16:06:11.813Z,1147.00
2023-04-12T16:07:11.805Z,1198.00
2023-04-12T16:08:11.792Z,1249.00
2023-04-12T16:09:11.787Z,1283.00
2023-04-12T16:10:11.775Z,1283.00
2023-04-12T16:11:11.766Z,1266.00
2023-04-12T16:12:11.800Z,1253.00
2023-04-12T16:13:11.745Z,1284.00
2023-04-12T16:16:11.770Z,1321.00
2023-04-12T16:18:11.712Z,1376.00
2023-04-12T16:19:11.687Z,1404.00
2023-04-12T16:20:11.672Z,1419.00
2023-04-12T16:22:11.655Z,1344.00
2023-04-12T16:23:11.681Z,1291.00
2023-04-12T16:24:11.633Z,1251.00
2023-04-12T16:25:11.624Z,1242.00
2023-04-12T16:26:11.616Z,1249.00
2023-04-12T16:29:11.578Z,1323.00
2023-04-12T16:32:11.626Z,1448.00
2023-04-12T16:33:11.595Z,1453.00
2023-04-12T16:34:11.536Z,1454.00
2023-04-12T16:35:11.518Z,1447.00
2023-04-12T16:36:11.509Z,1418.00
2023-04-12T16:37:11.503Z,1371.00
2023-04-12T16:38:11.486Z,1315.00
2023-04-12T16:39:11.485Z,1234.00
2023-04-12T16:40:11.484Z,1168.00
2023-04-12T16:41:11.463Z,1118.00
2023-04-12T16:42:11.449Z,1057.00
2023-04-12T16:43:11.444Z,978.00
2023-04-12T16:44:11.429Z,898.00
2023-04-12T16:45:11.435Z,821.00
2023-04-12T16:46:11.412Z,751.00
2023-04-12T16:48:11.402Z,644.00
2023-04-12T16:50:11.368Z,602.00
2023-04-12T16:51:11.360Z,604.00
2023-04-12T16:52:11.349Z,596.00
2023-04-12T16:53:11.338Z,580.00
2023-04-12T16:54:11.330Z,573.00
2023-04-12T16:55:11.352Z,566.00
2023-04-12T16:56:11.304Z,551.00
2023-04-12T16:58:11.284Z,496.00
2023-04-12T16:59:11.276Z,464.00
2023-04-12T17:00:11.272Z,436.00
2023-04-12T17:01:11.265Z,407.00
2023-04-12T17:02:11.269Z,402.00
2023-04-12T17:04:11.299Z,411.00
2023-04-12T17:05:11.237Z,419.00
2023-04-12T17:06:11.206Z,431.00
2023-04-12T17:07:11.196Z,432.00
2023-04-12T17:08:11.182Z,432.00
2023-04-12T17:09:11.174Z,424.00
2023-04-12T17:10:11.169Z,429.00
2023-04-12T17:11:11.148Z,434.00
2023-04-12T17:12:11.152Z,444.00
2023-04-12T17:13:11.127Z,448.00
2023-04-12T17:14:11.125Z,433.00
2023-04-12T17:15:11.121Z,422.00
2023-04-12T17:17:11.086Z,382.00
2023-04-12T17:18:11.080Z,367.00
2023-04-12T17:19:11.063Z,374.00
2023-04-12T17:20:11.068Z,359.00
2023-04-12T17:21:11.077Z,334.00
2023-04-12T17:22:11.032Z,334.00
2023-04-12T17:23:11.027Z,313.00
2023-04-12T17:24:11.021Z,287.00
2023-04-12T17:26:10.992Z,255.00
2023-04-12T17:27:10.984Z,233.00
2023-04-12T17:30:10.976Z,193.00
2023-04-12T17:31:11.121Z,181.00
2023-04-12T17:32:10.928Z,191.00
2023-04-12T17:33:10.925Z,185.00
2023-04-12T17:34:10.906Z,174.00
2023-04-12T17:35:10.906Z,171.00
2023-04-12T17:36:12.012Z,169.00
2023-04-12T17:37:10.902Z,164.00
2023-04-12T17:39:10.852Z,149.00